Flagstaff Pulliam Airport Flagstaff US
ICAO: KFLG
IATA: FLG
Category: Medium
Scheduled Services: Yes

Elevation: 7014 ft
TransAlt. 18000 ft.

Airport Communications:
ATIS:125.8
ALBUQUERQUE CNTR:124.5
CTAF:134.55
GND:121.9
PRESCOTT RDO:122.3
TWR:134.55
UNICOM:122.95

KFLG Zoom In..

Runways:

(A) RW 03 length 8800 ft width 150 ft
---- / hdg 27

(B) RW 21 length 8800 ft width 150 ft
ILS 110.50 / hdg 207

Location; KFLG
Day. 20 / Time. 02.57 Zulu
* Altimeter: 30.34
* Temperature: 21° c. 69.8°f.
* Wind from: 060° Speed 05 kn.
Dewpoint: 12° c.
Visibility: 10 Statute Miles.
Clouds: Broken 7500 ft.
Clouds: Overcast 1000 ft.

KFLG 200257Z 06005KT 10SM VCTS BKN075 OVC100 21/12 A3034 RMK AO2 LTG DSNT E-SW SLP164 T02060122 53017


Wind From 060°
Speed 05 kn.

 
 
jpsmedia.com for Web Design worldairports.se 2018   terms of use